createdAt,value
2023-07-18T00:01:59.645Z,12.50
2023-07-18T00:04:29.464Z,12.48
2023-07-18T00:06:56.237Z,12.48
2023-07-18T00:09:23.630Z,12.48
2023-07-18T00:11:50.236Z,12.36
2023-07-18T00:14:17.816Z,12.32
2023-07-18T00:16:45.488Z,12.38
2023-07-18T00:19:13.334Z,12.27
2023-07-18T00:21:40.465Z,12.27
2023-07-18T00:24:07.394Z,12.24
2023-07-18T00:26:34.315Z,12.14
2023-07-18T00:29:00.852Z,12.15
2023-07-18T00:31:28.207Z,12.11
2023-07-18T00:33:54.796Z,12.14
2023-07-18T00:36:21.424Z,12.15
2023-07-18T00:38:48.206Z,12.04
2023-07-18T00:41:15.265Z,12.13
2023-07-18T00:43:41.822Z,12.12
2023-07-18T00:46:09.440Z,12.09
2023-07-18T00:48:36.971Z,12.09
2023-07-18T00:51:08.496Z,12.03
2023-07-18T00:53:38.491Z,12.02
2023-07-18T00:56:05.916Z,11.99
2023-07-18T00:58:32.739Z,11.82
2023-07-18T01:01:01.526Z,11.96
2023-07-18T01:03:28.706Z,11.93
2023-07-18T01:05:55.628Z,11.86
2023-07-18T01:08:22.384Z,11.82
2023-07-18T01:10:50.280Z,11.79
2023-07-18T01:13:17.062Z,11.77
2023-07-18T01:15:44.430Z,11.69
2023-07-18T01:18:11.292Z,11.72
2023-07-18T01:20:38.284Z,11.73
2023-07-18T01:23:05.786Z,11.61
2023-07-18T01:25:37.709Z,11.71
2023-07-18T01:28:04.960Z,11.67
2023-07-18T01:30:31.850Z,11.68
2023-07-18T01:32:58.980Z,11.64
2023-07-18T01:35:27.893Z,11.59
2023-07-18T01:37:56.013Z,11.61
2023-07-18T01:40:23.670Z,11.58
2023-07-18T01:42:52.354Z,11.49
2023-07-18T01:45:23.949Z,11.55
2023-07-18T01:47:52.356Z,11.54
2023-07-18T01:50:19.693Z,11.53
2023-07-18T01:52:48.180Z,11.22
2023-07-18T01:55:15.980Z,11.49
2023-07-18T01:57:43.877Z,11.47
2023-07-18T02:00:12.439Z,11.44
2023-07-18T02:02:43.020Z,11.15
2023-07-18T02:05:10.127Z,11.44
2023-07-18T02:07:36.947Z,11.38
2023-07-18T02:10:04.009Z,11.20
2023-07-18T02:12:30.978Z,11.45
2023-07-18T02:14:57.900Z,11.42
2023-07-18T02:17:24.947Z,11.34
2023-07-18T02:19:51.846Z,11.48
2023-07-18T02:22:20.281Z,11.53
2023-07-18T02:24:49.323Z,11.53
2023-07-18T02:27:16.302Z,11.51
2023-07-18T02:29:43.122Z,11.35
2023-07-18T02:32:09.904Z,11.53
2023-07-18T02:34:36.760Z,11.53
2023-07-18T02:37:03.600Z,11.38
2023-07-18T02:39:33.884Z,11.55
2023-07-18T02:42:00.912Z,11.50
2023-07-18T02:44:27.755Z,11.48
2023-07-18T02:46:54.693Z,11.45
2023-07-18T02:49:21.770Z,11.44
2023-07-18T02:51:48.658Z,11.38
2023-07-18T02:54:15.476Z,11.41
2023-07-18T02:56:42.274Z,11.25
2023-07-18T02:59:09.088Z,11.36
2023-07-18T03:01:35.900Z,11.39
2023-07-18T03:04:02.858Z,11.39
2023-07-18T03:06:30.308Z,11.30
2023-07-18T03:08:57.129Z,11.36
2023-07-18T03:11:24.505Z,11.38
2023-07-18T03:13:51.540Z,11.36
2023-07-18T03:16:18.349Z,11.38
2023-07-18T03:18:45.089Z,11.36
2023-07-18T03:21:11.836Z,11.35
2023-07-18T03:23:38.559Z,11.35
2023-07-18T03:26:08.221Z,11.27
2023-07-18T03:28:34.781Z,11.31
2023-07-18T03:31:01.596Z,11.38
2023-07-18T03:33:28.182Z,11.36
2023-07-18T03:35:54.868Z,11.38
2023-07-18T03:38:21.442Z,11.28
2023-07-18T03:40:48.407Z,11.13
2023-07-18T03:43:15.002Z,11.18
2023-07-18T03:45:41.820Z,11.32
2023-07-18T03:48:08.407Z,11.38
2023-07-18T03:50:35.048Z,11.45
2023-07-18T03:53:01.595Z,11.48
2023-07-18T03:55:28.153Z,11.49
2023-07-18T03:57:54.699Z,11.43
2023-07-18T04:00:21.861Z,11.37
2023-07-18T04:02:49.693Z,11.56
2023-07-18T04:05:18.596Z,11.29
2023-07-18T04:07:46.667Z,11.58
2023-07-18T04:10:13.991Z,11.60
2023-07-18T04:12:41.442Z,11.60
2023-07-18T04:15:09.373Z,11.69
2023-07-18T04:17:36.351Z,11.71
2023-07-18T04:20:07.003Z,11.77
2023-07-18T04:22:33.565Z,11.80
2023-07-18T04:25:00.113Z,11.68
2023-07-18T04:27:28.499Z,11.71
2023-07-18T04:29:56.157Z,11.87
2023-07-18T04:32:22.877Z,11.87
2023-07-18T04:34:49.872Z,11.81
2023-07-18T04:37:17.120Z,11.92
2023-07-18T04:39:43.701Z,11.78
2023-07-18T04:42:11.650Z,11.94
2023-07-18T04:44:39.034Z,11.95
2023-07-18T04:47:05.954Z,11.91
2023-07-18T04:49:33.043Z,12.05
2023-07-18T04:51:59.632Z,12.10
2023-07-18T04:54:26.333Z,11.96
2023-07-18T04:56:54.628Z,12.19
2023-07-18T04:59:23.432Z,12.22
2023-07-18T05:01:54.945Z,12.27
2023-07-18T05:04:21.886Z,12.21
2023-07-18T05:06:49.931Z,12.38
2023-07-18T05:09:18.771Z,12.43
2023-07-18T05:11:47.682Z,12.53
2023-07-18T05:14:14.213Z,12.46
2023-07-18T05:16:40.732Z,12.60
2023-07-18T05:19:07.375Z,12.63
2023-07-18T05:21:34.059Z,12.85
2023-07-18T05:24:00.807Z,12.95
2023-07-18T05:26:27.557Z,13.03
2023-07-18T05:28:55.128Z,13.06
2023-07-18T05:31:22.657Z,13.14
2023-07-18T05:33:49.900Z,13.20
2023-07-18T05:36:17.400Z,13.21
2023-07-18T05:38:46.186Z,13.31
2023-07-18T05:41:13.181Z,13.28
2023-07-18T05:43:40.255Z,13.41
2023-07-18T05:46:07.212Z,13.29
2023-07-18T05:48:34.170Z,13.36
2023-07-18T05:51:01.901Z,13.57
2023-07-18T05:53:29.018Z,13.68
2023-07-18T05:55:55.958Z,13.70
2023-07-18T05:58:22.881Z,13.72
2023-07-18T06:00:49.702Z,13.93
2023-07-18T06:03:16.724Z,13.94
2023-07-18T06:05:43.575Z,14.11
2023-07-18T06:08:11.378Z,14.16
2023-07-18T06:10:38.139Z,14.09
2023-07-18T06:13:05.696Z,14.32
2023-07-18T06:15:32.588Z,14.44
2023-07-18T06:17:59.348Z,14.45
2023-07-18T06:20:26.285Z,14.56
2023-07-18T06:22:53.736Z,14.68
2023-07-18T06:25:20.587Z,14.73
2023-07-18T06:27:47.456Z,14.75
2023-07-18T06:30:14.327Z,14.84
2023-07-18T06:32:41.414Z,14.81
2023-07-18T06:35:22.385Z,14.90
2023-07-18T06:37:51.190Z,14.81
2023-07-18T06:40:18.368Z,14.95
2023-07-18T06:42:45.092Z,14.98
2023-07-18T06:45:13.522Z,15.03
2023-07-18T06:47:40.395Z,15.08
2023-07-18T06:50:07.500Z,15.15
2023-07-18T06:52:36.631Z,15.12
2023-07-18T06:55:05.160Z,15.24
2023-07-18T06:57:31.717Z,15.28
2023-07-18T06:59:58.302Z,15.33
2023-07-18T07:02:24.875Z,15.35
2023-07-18T07:04:51.442Z,15.40
2023-07-18T07:07:18.002Z,15.43
2023-07-18T07:09:44.766Z,15.45
2023-07-18T07:12:19.005Z,15.43
2023-07-18T07:14:53.026Z,15.47
2023-07-18T07:17:19.806Z,15.49
2023-07-18T07:19:46.327Z,15.45
2023-07-18T07:22:14.487Z,15.58
2023-07-18T07:24:41.561Z,15.67
2023-07-18T07:27:08.341Z,15.71
2023-07-18T07:29:34.913Z,15.86
2023-07-18T07:32:01.581Z,15.91
2023-07-18T07:34:30.329Z,15.93
2023-07-18T07:36:57.882Z,16.04
2023-07-18T07:39:24.478Z,16.06
2023-07-18T07:41:51.133Z,16.12
2023-07-18T07:44:17.660Z,16.31
2023-07-18T07:46:44.537Z,16.43
2023-07-18T07:49:12.600Z,16.45
2023-07-18T07:51:39.221Z,16.58
2023-07-18T07:54:05.913Z,16.63
2023-07-18T07:56:32.516Z,16.61
2023-07-18T07:59:10.527Z,16.86
2023-07-18T08:01:38.480Z,16.99
2023-07-18T08:04:05.260Z,17.08
2023-07-18T08:06:31.954Z,17.37
2023-07-18T08:08:58.630Z,17.67
2023-07-18T08:11:25.181Z,17.89
2023-07-18T08:13:54.763Z,18.03
2023-07-18T08:16:21.876Z,18.13
2023-07-18T08:18:48.520Z,18.21
2023-07-18T08:21:15.234Z,18.37
2023-07-18T08:23:41.806Z,18.51
2023-07-18T08:26:10.517Z,18.73
2023-07-18T08:28:39.895Z,19.17
2023-07-18T08:31:06.698Z,19.35
2023-07-18T08:33:34.132Z,19.59
2023-07-18T08:36:00.936Z,19.93
2023-07-18T08:38:27.711Z,20.31
2023-07-18T08:40:54.361Z,20.69
2023-07-18T08:43:21.672Z,20.78
2023-07-18T08:45:48.933Z,20.51
2023-07-18T08:48:18.679Z,20.18
2023-07-18T08:50:48.166Z,19.86
2023-07-18T08:53:14.783Z,19.97
2023-07-18T08:55:41.630Z,19.83
2023-07-18T08:58:09.211Z,19.92
2023-07-18T09:00:35.776Z,20.37
2023-07-18T09:03:02.655Z,20.61
2023-07-18T09:05:35.000Z,21.02
2023-07-18T09:08:03.521Z,21.35
2023-07-18T09:10:30.646Z,21.67
2023-07-18T09:13:02.173Z,21.79
2023-07-18T09:15:30.186Z,22.19
2023-07-18T09:17:58.584Z,22.30
2023-07-18T09:20:30.663Z,22.45
2023-07-18T09:22:58.770Z,22.67
2023-07-18T09:25:27.039Z,22.83
2023-07-18T09:27:58.258Z,23.20
2023-07-18T09:30:29.732Z,23.55
2023-07-18T09:32:56.717Z,23.66
2023-07-18T09:35:28.022Z,23.88
2023-07-18T09:37:54.931Z,23.91
2023-07-18T09:40:21.943Z,23.46
2023-07-18T09:42:50.087Z,23.25
2023-07-18T09:45:18.106Z,23.03
2023-07-18T09:47:45.509Z,22.82
2023-07-18T09:50:14.528Z,23.01
2023-07-18T09:52:43.594Z,23.35
2023-07-18T09:55:12.795Z,23.62
2023-07-18T09:57:41.467Z,23.83
2023-07-18T10:00:13.027Z,24.14
2023-07-18T10:02:40.850Z,24.39
2023-07-18T10:05:11.040Z,24.60
2023-07-18T10:07:39.862Z,24.89
2023-07-18T10:10:11.956Z,25.12
2023-07-18T10:13:01.444Z,25.24
2023-07-18T10:15:29.637Z,25.23
2023-07-18T10:18:16.327Z,25.36
2023-07-18T10:20:57.592Z,25.37
2023-07-18T10:23:43.295Z,25.43
2023-07-18T10:26:10.687Z,25.08
2023-07-18T10:28:45.372Z,24.96
2023-07-18T10:31:29.465Z,24.49
2023-07-18T10:34:15.205Z,24.40
2023-07-18T10:36:55.703Z,24.54
2023-07-18T10:39:40.652Z,24.62
2023-07-18T10:42:08.416Z,24.57
2023-07-18T10:44:38.207Z,24.42
2023-07-18T10:47:19.095Z,24.22
2023-07-18T10:49:48.448Z,24.13
2023-07-18T10:52:16.679Z,23.88
2023-07-18T10:54:46.999Z,23.78
2023-07-18T10:57:14.981Z,23.34
2023-07-18T10:59:45.723Z,23.04
2023-07-18T11:02:13.111Z,22.83
2023-07-18T11:04:39.896Z,22.78
2023-07-18T11:07:06.603Z,22.81
2023-07-18T11:09:33.429Z,22.72
2023-07-18T11:12:01.237Z,22.84
2023-07-18T11:14:38.296Z,23.12
2023-07-18T11:17:11.718Z,23.94
2023-07-18T11:19:39.060Z,24.64
2023-07-18T11:22:07.045Z,25.01
2023-07-18T11:24:36.489Z,25.28
2023-07-18T11:27:20.705Z,25.28
2023-07-18T11:30:05.828Z,25.12
2023-07-18T11:32:39.037Z,24.82
2023-07-18T11:35:08.689Z,24.98
2023-07-18T11:37:42.513Z,24.97
2023-07-18T11:40:11.240Z,24.98
2023-07-18T11:42:43.917Z,24.76
2023-07-18T11:45:11.121Z,24.60
2023-07-18T11:47:43.983Z,24.62
2023-07-18T11:50:11.741Z,24.86
2023-07-18T11:52:38.562Z,25.16
2023-07-18T11:55:05.551Z,25.61
2023-07-18T11:57:32.087Z,26.00
2023-07-18T11:59:59.699Z,26.00
2023-07-18T12:02:26.474Z,25.73
2023-07-18T12:04:53.737Z,25.32
2023-07-18T12:07:20.470Z,25.28
2023-07-18T12:09:48.800Z,25.13
2023-07-18T12:12:15.402Z,24.60
2023-07-18T12:14:42.997Z,24.01
2023-07-18T12:17:09.702Z,23.94
2023-07-18T12:19:36.414Z,23.69
2023-07-18T12:22:03.147Z,23.80
2023-07-18T12:24:29.784Z,24.16
2023-07-18T12:26:56.396Z,24.23
2023-07-18T12:29:23.534Z,24.12
2023-07-18T12:31:53.245Z,24.07
2023-07-18T12:34:20.813Z,24.39
2023-07-18T12:36:50.216Z,24.68
2023-07-18T12:39:18.875Z,25.15
2023-07-18T12:41:45.413Z,25.71
2023-07-18T12:44:19.745Z,26.06
2023-07-18T12:46:47.891Z,26.34
2023-07-18T12:49:15.802Z,26.31
2023-07-18T12:51:42.605Z,25.83
2023-07-18T12:54:09.859Z,25.43
2023-07-18T12:56:38.827Z,25.01
2023-07-18T12:59:07.186Z,24.66
2023-07-18T13:01:34.064Z,24.34
2023-07-18T13:04:04.476Z,24.18
2023-07-18T13:06:31.219Z,24.02
2023-07-18T13:08:58.073Z,23.86
2023-07-18T13:11:24.852Z,23.61
2023-07-18T13:13:52.811Z,23.51
2023-07-18T13:16:19.905Z,23.33
2023-07-18T13:18:47.070Z,23.15
2023-07-18T13:21:14.147Z,23.09
2023-07-18T13:23:40.961Z,22.90
2023-07-18T13:26:10.641Z,22.81
2023-07-18T13:28:37.567Z,22.68
2023-07-18T13:31:04.385Z,22.53
2023-07-18T13:33:31.095Z,22.43
2023-07-18T13:35:59.253Z,22.34
2023-07-18T13:38:26.018Z,22.31
2023-07-18T13:40:53.953Z,22.19
2023-07-18T13:43:20.777Z,22.12
2023-07-18T13:45:47.700Z,22.05
2023-07-18T13:48:16.510Z,21.97
2023-07-18T13:50:43.385Z,21.94
2023-07-18T13:53:10.179Z,21.89
2023-07-18T13:55:37.231Z,21.83
2023-07-18T13:58:13.387Z,21.75
2023-07-18T14:00:40.908Z,21.72
2023-07-18T14:03:19.702Z,21.68
2023-07-18T14:05:54.361Z,21.63
2023-07-18T14:08:22.644Z,21.57
2023-07-18T14:10:49.518Z,21.54
2023-07-18T14:13:16.950Z,21.48
2023-07-18T14:15:43.560Z,21.34
2023-07-18T14:18:12.156Z,21.36
2023-07-18T14:20:38.962Z,21.29
2023-07-18T14:23:05.624Z,21.22
2023-07-18T14:25:32.368Z,21.05
2023-07-18T14:27:59.446Z,21.06
2023-07-18T14:30:26.560Z,20.96
2023-07-18T14:32:53.165Z,20.85
2023-07-18T14:35:20.052Z,20.71
2023-07-18T14:37:47.914Z,20.70
2023-07-18T14:40:14.549Z,20.65
2023-07-18T14:42:41.654Z,20.61
2023-07-18T14:45:11.146Z,20.57
2023-07-18T14:47:37.801Z,20.54
2023-07-18T14:50:05.093Z,20.43
2023-07-18T14:52:34.738Z,20.44
2023-07-18T14:55:01.633Z,20.48
2023-07-18T14:57:28.228Z,20.51
2023-07-18T14:59:54.908Z,20.38
2023-07-18T15:02:22.194Z,20.58
2023-07-18T15:04:50.008Z,20.66
2023-07-18T15:07:16.595Z,20.76
2023-07-18T15:09:44.312Z,20.82
2023-07-18T15:12:11.039Z,20.91
2023-07-18T15:14:38.057Z,20.93
2023-07-18T15:17:06.285Z,20.94
2023-07-18T15:19:33.416Z,20.93
2023-07-18T15:22:01.995Z,20.81
2023-07-18T15:24:28.524Z,20.85
2023-07-18T15:26:55.504Z,20.82
2023-07-18T15:29:22.395Z,20.81
2023-07-18T15:31:49.215Z,20.81
2023-07-18T15:34:16.140Z,20.83
2023-07-18T15:36:47.264Z,20.79
2023-07-18T15:39:13.902Z,20.84
2023-07-18T15:41:40.511Z,20.84
2023-07-18T15:44:07.105Z,20.80
2023-07-18T15:46:37.646Z,20.88
2023-07-18T15:49:05.221Z,20.89
2023-07-18T15:51:32.239Z,20.90
2023-07-18T15:53:58.854Z,20.92
2023-07-18T15:56:25.455Z,20.96
2023-07-18T15:58:53.281Z,20.98
2023-07-18T16:01:19.900Z,21.03
2023-07-18T16:03:46.818Z,20.98
2023-07-18T16:06:14.435Z,20.92
2023-07-18T16:08:41.359Z,20.94
2023-07-18T16:11:07.932Z,20.91
2023-07-18T16:13:35.639Z,20.87
2023-07-18T16:16:02.590Z,20.87
2023-07-18T16:18:29.384Z,20.81
2023-07-18T16:20:56.201Z,20.75
2023-07-18T16:23:22.949Z,20.72
2023-07-18T16:25:49.878Z,20.67
2023-07-18T16:28:16.699Z,20.61
2023-07-18T16:30:43.767Z,20.58
2023-07-18T16:33:10.573Z,20.58
2023-07-18T16:35:37.669Z,20.52
2023-07-18T16:38:04.602Z,20.49
2023-07-18T16:40:31.423Z,20.43
2023-07-18T16:42:58.173Z,20.37
2023-07-18T16:45:24.966Z,20.30
2023-07-18T16:47:51.794Z,20.25
2023-07-18T16:50:18.690Z,20.15
2023-07-18T16:52:46.365Z,20.25
2023-07-18T16:55:13.225Z,20.24
2023-07-18T16:57:39.987Z,20.18
2023-07-18T17:00:07.393Z,20.13
2023-07-18T17:02:34.903Z,20.05
2023-07-18T17:05:01.877Z,20.08
2023-07-18T17:07:28.651Z,20.03
2023-07-18T17:09:55.419Z,19.94
2023-07-18T17:12:22.263Z,19.95
2023-07-18T17:14:48.998Z,19.90
2023-07-18T17:17:15.831Z,19.87
2023-07-18T17:19:53.455Z,19.87
2023-07-18T17:22:29.519Z,19.88
2023-07-18T17:24:56.140Z,19.85
2023-07-18T17:27:23.312Z,19.85
2023-07-18T17:29:50.155Z,19.83
2023-07-18T17:32:18.383Z,19.81
2023-07-18T17:34:45.082Z,19.82
2023-07-18T17:37:11.628Z,19.80
2023-07-18T17:39:38.197Z,19.70
2023-07-18T17:42:08.182Z,19.78
2023-07-18T17:44:35.603Z,19.77
2023-07-18T17:47:02.144Z,19.69
2023-07-18T17:49:28.708Z,19.76
2023-07-18T17:51:55.279Z,19.75
2023-07-18T17:54:22.373Z,19.70
2023-07-18T17:56:49.094Z,19.66
2023-07-18T17:59:15.646Z,19.65
2023-07-18T18:01:42.732Z,19.59
2023-07-18T18:04:11.081Z,19.60
2023-07-18T18:06:37.713Z,19.58
2023-07-18T18:09:04.366Z,19.49
2023-07-18T18:11:31.188Z,19.37
2023-07-18T18:14:00.751Z,19.42
2023-07-18T18:16:27.588Z,19.38
2023-07-18T18:18:54.168Z,19.40
2023-07-18T18:21:21.496Z,19.38
2023-07-18T18:23:48.893Z,19.39
2023-07-18T18:26:15.823Z,19.40
2023-07-18T18:28:42.430Z,19.36
2023-07-18T18:31:09.029Z,19.39
2023-07-18T18:33:35.649Z,19.27
2023-07-18T18:36:02.574Z,19.37
2023-07-18T18:38:29.150Z,19.27
2023-07-18T18:40:55.743Z,19.26
2023-07-18T18:43:22.378Z,19.16
2023-07-18T18:45:49.008Z,19.18
2023-07-18T18:48:15.528Z,19.19
2023-07-18T18:50:42.087Z,19.15
2023-07-18T18:53:08.915Z,19.09
2023-07-18T18:55:35.816Z,19.05
2023-07-18T18:58:02.643Z,19.01
2023-07-18T19:00:29.577Z,18.79
2023-07-18T19:02:58.689Z,18.90
2023-07-18T19:05:25.458Z,18.85
2023-07-18T19:07:52.035Z,18.89
2023-07-18T19:10:18.568Z,18.86
2023-07-18T19:12:45.084Z,18.83
2023-07-18T19:15:11.926Z,18.78
2023-07-18T19:17:38.682Z,18.76
2023-07-18T19:20:06.275Z,18.73
2023-07-18T19:22:33.089Z,18.58
2023-07-18T19:24:59.885Z,18.61
2023-07-18T19:27:27.344Z,18.55
2023-07-18T19:29:54.261Z,18.48
2023-07-18T19:32:21.200Z,18.42
2023-07-18T19:34:48.050Z,18.40
2023-07-18T19:37:14.926Z,18.35
2023-07-18T19:39:41.905Z,18.32
2023-07-18T19:42:09.155Z,18.24
2023-07-18T19:44:36.031Z,18.17
2023-07-18T19:47:02.991Z,18.20
2023-07-18T19:49:30.040Z,18.04
2023-07-18T19:51:59.676Z,18.12
2023-07-18T19:54:27.088Z,18.00
2023-07-18T19:56:54.384Z,18.02
2023-07-18T19:59:21.455Z,17.98
2023-07-18T20:01:48.636Z,17.89
2023-07-18T20:04:15.813Z,17.78
2023-07-18T20:06:42.742Z,17.73
2023-07-18T20:09:09.671Z,17.63
2023-07-18T20:11:36.569Z,17.55
2023-07-18T20:14:03.384Z,17.48
2023-07-18T20:16:31.405Z,17.36
2023-07-18T20:19:02.537Z,17.40
2023-07-18T20:21:30.843Z,17.33
2023-07-18T20:23:58.217Z,17.19
2023-07-18T20:26:25.746Z,17.20
2023-07-18T20:28:52.714Z,17.15
2023-07-18T20:31:20.237Z,17.14
2023-07-18T20:33:47.804Z,17.04
2023-07-18T20:36:14.541Z,17.03
2023-07-18T20:38:41.346Z,16.98
2023-07-18T20:41:10.299Z,16.91
2023-07-18T20:43:37.190Z,16.90
2023-07-18T20:46:04.967Z,16.93
2023-07-18T20:48:34.868Z,16.90
2023-07-18T20:51:01.474Z,16.87
2023-07-18T20:53:30.254Z,16.79
2023-07-18T20:55:57.290Z,16.64
2023-07-18T20:58:24.401Z,16.60
2023-07-18T21:00:51.085Z,16.57
2023-07-18T21:03:17.830Z,16.50
2023-07-18T21:05:45.278Z,16.46
2023-07-18T21:08:12.876Z,16.42
2023-07-18T21:10:39.436Z,16.29
2023-07-18T21:13:08.243Z,16.28
2023-07-18T21:15:39.311Z,16.31
2023-07-18T21:18:05.937Z,16.19
2023-07-18T21:20:32.509Z,16.28
2023-07-18T21:23:00.620Z,16.27
2023-07-18T21:25:28.459Z,16.27
2023-07-18T21:27:55.105Z,16.25
2023-07-18T21:30:21.812Z,16.24
2023-07-18T21:32:48.388Z,16.14
2023-07-18T21:35:15.971Z,16.26
2023-07-18T21:37:42.567Z,16.17
2023-07-18T21:40:09.908Z,16.24
2023-07-18T21:42:36.455Z,16.23
2023-07-18T21:45:03.104Z,16.29
2023-07-18T21:47:29.683Z,16.26
2023-07-18T21:49:56.657Z,16.20
2023-07-18T21:52:23.824Z,16.24
2023-07-18T21:54:50.397Z,16.18
2023-07-18T21:57:17.603Z,16.23
2023-07-18T21:59:44.456Z,16.13
2023-07-18T22:02:12.675Z,16.21
2023-07-18T22:04:39.805Z,16.18
2023-07-18T22:07:09.068Z,16.08
2023-07-18T22:09:36.131Z,16.15
2023-07-18T22:12:06.560Z,16.13
2023-07-18T22:14:33.202Z,16.15
2023-07-18T22:16:59.907Z,16.15
2023-07-18T22:19:26.730Z,16.13
2023-07-18T22:21:53.277Z,16.06
2023-07-18T22:24:19.894Z,16.11
2023-07-18T22:26:46.479Z,16.11
2023-07-18T22:29:13.075Z,16.09
2023-07-18T22:31:39.738Z,16.08
2023-07-18T22:34:06.437Z,16.03
2023-07-18T22:36:32.996Z,16.06
2023-07-18T22:38:59.567Z,16.02
2023-07-18T22:41:26.601Z,16.07
2023-07-18T22:43:53.752Z,16.02
2023-07-18T22:46:20.507Z,15.95
2023-07-18T22:48:47.269Z,15.99
2023-07-18T22:51:13.982Z,15.94
2023-07-18T22:53:40.707Z,15.96
2023-07-18T22:56:07.450Z,15.91
2023-07-18T22:58:34.175Z,15.91
2023-07-18T23:01:00.954Z,15.89
2023-07-18T23:03:27.838Z,15.87
2023-07-18T23:05:54.690Z,15.84
2023-07-18T23:08:21.223Z,15.81
2023-07-18T23:10:48.029Z,15.82
2023-07-18T23:13:16.373Z,15.72
2023-07-18T23:15:43.252Z,15.75
2023-07-18T23:18:09.878Z,15.78
2023-07-18T23:20:36.532Z,15.75
2023-07-18T23:23:04.463Z,15.73
2023-07-18T23:25:31.148Z,15.72
2023-07-18T23:27:57.696Z,15.72
2023-07-18T23:30:24.367Z,15.69
2023-07-18T23:32:50.998Z,15.72
2023-07-18T23:35:17.807Z,15.72
2023-07-18T23:37:44.406Z,15.71
2023-07-18T23:40:10.972Z,15.70
2023-07-18T23:42:38.873Z,15.68
2023-07-18T23:45:05.907Z,15.61
2023-07-18T23:47:32.457Z,15.60
2023-07-18T23:49:59.110Z,15.63
2023-07-18T23:52:25.638Z,15.61
2023-07-18T23:54:52.234Z,15.61
2023-07-18T23:57:18.758Z,15.56
2023-07-18T23:59:45.316Z,15.66
